sensor_id;sensor_type;location;lat;lon;timestamp;P1;durP1;ratioP1;P2;durP2;ratioP2
44137;SDS011;29800;55.942;37.314;2022-12-20T00:00:50;5.60;;;3.13;;
44137;SDS011;29800;55.942;37.314;2022-12-20T00:03:17;7.50;;;3.78;;
44137;SDS011;29800;55.942;37.314;2022-12-20T00:05:44;8.13;;;4.18;;
44137;SDS011;29800;55.942;37.314;2022-12-20T00:08:11;7.47;;;3.92;;
44137;SDS011;29800;55.942;37.314;2022-12-20T00:10:40;8.38;;;3.50;;
44137;SDS011;29800;55.942;37.314;2022-12-20T00:13:09;6.75;;;3.22;;
44137;SDS011;29800;55.942;37.314;2022-12-20T00:15:36;9.00;;;4.30;;
44137;SDS011;29800;55.942;37.314;2022-12-20T00:18:02;8.35;;;3.75;;
44137;SDS011;29800;55.942;37.314;2022-12-20T00:20:29;5.75;;;3.13;;
44137;SDS011;29800;55.942;37.314;2022-12-20T00:22:55;6.53;;;3.65;;
44137;SDS011;29800;55.942;37.314;2022-12-20T00:25:21;7.10;;;3.60;;
44137;SDS011;29800;55.942;37.314;2022-12-20T00:27:48;6.75;;;3.10;;
44137;SDS011;29800;55.942;37.314;2022-12-20T00:30:15;7.80;;;3.70;;
44137;SDS011;29800;55.942;37.314;2022-12-20T00:32:42;5.85;;;2.97;;
44137;SDS011;29800;55.942;37.314;2022-12-20T00:35:09;5.68;;;2.67;;
44137;SDS011;29800;55.942;37.314;2022-12-20T00:37:35;7.97;;;3.13;;
44137;SDS011;29800;55.942;37.314;2022-12-20T00:40:02;6.43;;;3.53;;
44137;SDS011;29800;55.942;37.314;2022-12-20T00:42:29;6.13;;;3.38;;
44137;SDS011;29800;55.942;37.314;2022-12-20T00:44:55;8.82;;;4.93;;
44137;SDS011;29800;55.942;37.314;2022-12-20T00:47:22;7.45;;;3.88;;
44137;SDS011;29800;55.942;37.314;2022-12-20T00:49:48;7.75;;;4.15;;
44137;SDS011;29800;55.942;37.314;2022-12-20T00:52:14;8.60;;;4.03;;
44137;SDS011;29800;55.942;37.314;2022-12-20T00:54:40;6.93;;;3.78;;
44137;SDS011;29800;55.942;37.314;2022-12-20T00:57:06;7.00;;;3.78;;
44137;SDS011;29800;55.942;37.314;2022-12-20T00:59:32;7.63;;;3.83;;
44137;SDS011;29800;55.942;37.314;2022-12-20T01:01:58;7.88;;;3.67;;
44137;SDS011;29800;55.942;37.314;2022-12-20T01:04:24;8.30;;;4.07;;
44137;SDS011;29800;55.942;37.314;2022-12-20T01:06:51;6.88;;;3.40;;
44137;SDS011;29800;55.942;37.314;2022-12-20T01:09:17;5.97;;;3.15;;
44137;SDS011;29800;55.942;37.314;2022-12-20T01:11:43;5.97;;;3.15;;
44137;SDS011;29800;55.942;37.314;2022-12-20T01:14:11;5.43;;;2.97;;
44137;SDS011;29800;55.942;37.314;2022-12-20T01:16:40;6.53;;;2.85;;
44137;SDS011;29800;55.942;37.314;2022-12-20T01:19:10;6.72;;;2.80;;
44137;SDS011;29800;55.942;37.314;2022-12-20T01:21:38;6.60;;;3.53;;
44137;SDS011;29800;55.942;37.314;2022-12-20T01:24:10;7.20;;;3.58;;
44137;SDS011;29800;55.942;37.314;2022-12-20T01:26:37;5.72;;;2.97;;
44137;SDS011;29800;55.942;37.314;2022-12-20T01:29:03;6.63;;;3.78;;
44137;SDS011;29800;55.942;37.314;2022-12-20T01:31:30;6.32;;;3.53;;
44137;SDS011;29800;55.942;37.314;2022-12-20T01:33:56;7.93;;;3.95;;
44137;SDS011;29800;55.942;37.314;2022-12-20T01:36:28;8.23;;;3.53;;
44137;SDS011;29800;55.942;37.314;2022-12-20T01:39:03;8.25;;;4.03;;
44137;SDS011;29800;55.942;37.314;2022-12-20T01:41:36;8.40;;;3.95;;
44137;SDS011;29800;55.942;37.314;2022-12-20T01:44:04;6.60;;;3.60;;
44137;SDS011;29800;55.942;37.314;2022-12-20T01:46:52;6.25;;;3.40;;
44137;SDS011;29800;55.942;37.314;2022-12-20T01:51:55;7.20;;;4.00;;
44137;SDS011;29800;55.942;37.314;2022-12-20T01:54:40;8.20;;;3.60;;
44137;SDS011;29800;55.942;37.314;2022-12-20T01:57:15;8.10;;;3.60;;
44137;SDS011;29800;55.942;37.314;2022-12-20T01:59:45;8.85;;;4.25;;
44137;SDS011;29800;55.942;37.314;2022-12-20T02:02:14;10.25;;;3.67;;
44137;SDS011;29800;55.942;37.314;2022-12-20T02:04:41;8.52;;;3.97;;
44137;SDS011;29800;55.942;37.314;2022-12-20T02:07:07;6.15;;;3.28;;
44137;SDS011;29800;55.942;37.314;2022-12-20T02:09:40;10.25;;;3.95;;
44137;SDS011;29800;55.942;37.314;2022-12-20T02:15:11;7.65;;;3.63;;
44137;SDS011;29800;55.942;37.314;2022-12-20T02:18:21;8.23;;;3.78;;
44137;SDS011;29800;55.942;37.314;2022-12-20T02:29:18;9.90;;;5.70;;
44137;SDS011;29800;55.942;37.314;2022-12-20T02:34:31;14.43;;;8.68;;
44137;SDS011;29800;55.942;37.314;2022-12-20T02:37:00;11.10;;;6.75;;
44137;SDS011;29800;55.942;37.314;2022-12-20T02:39:27;10.48;;;5.25;;
44137;SDS011;29800;55.942;37.314;2022-12-20T02:44:50;7.57;;;4.22;;
44137;SDS011;29800;55.942;37.314;2022-12-20T02:50:16;9.75;;;4.85;;
44137;SDS011;29800;55.942;37.314;2022-12-20T02:52:46;10.10;;;4.78;;
44137;SDS011;29800;55.942;37.314;2022-12-20T02:55:13;8.88;;;4.88;;
44137;SDS011;29800;55.942;37.314;2022-12-20T02:57:44;8.10;;;4.50;;
44137;SDS011;29800;55.942;37.314;2022-12-20T03:00:18;10.13;;;5.15;;
44137;SDS011;29800;55.942;37.314;2022-12-20T03:02:46;12.70;;;5.65;;
44137;SDS011;29800;55.942;37.314;2022-12-20T03:05:33;10.63;;;5.30;;
44137;SDS011;29800;55.942;37.314;2022-12-20T03:08:03;9.73;;;4.75;;
44137;SDS011;29800;55.942;37.314;2022-12-20T03:10:29;10.18;;;4.95;;
44137;SDS011;29800;55.942;37.314;2022-12-20T03:12:55;10.32;;;5.30;;
44137;SDS011;29800;55.942;37.314;2022-12-20T03:15:22;10.13;;;5.43;;
44137;SDS011;29800;55.942;37.314;2022-12-20T03:17:51;10.35;;;5.65;;
44137;SDS011;29800;55.942;37.314;2022-12-20T03:20:17;9.63;;;5.45;;
44137;SDS011;29800;55.942;37.314;2022-12-20T03:22:43;15.43;;;6.50;;
44137;SDS011;29800;55.942;37.314;2022-12-20T03:25:10;14.38;;;5.70;;
44137;SDS011;29800;55.942;37.314;2022-12-20T03:27:36;10.07;;;5.95;;
44137;SDS011;29800;55.942;37.314;2022-12-20T03:30:02;11.45;;;5.68;;
44137;SDS011;29800;55.942;37.314;2022-12-20T03:32:33;10.23;;;5.65;;
44137;SDS011;29800;55.942;37.314;2022-12-20T03:34:59;9.93;;;5.72;;
44137;SDS011;29800;55.942;37.314;2022-12-20T03:37:30;11.52;;;6.22;;
44137;SDS011;29800;55.942;37.314;2022-12-20T03:39:59;12.30;;;6.53;;
44137;SDS011;29800;55.942;37.314;2022-12-20T03:42:25;11.80;;;5.47;;
44137;SDS011;29800;55.942;37.314;2022-12-20T03:44:52;12.88;;;5.68;;
44137;SDS011;29800;55.942;37.314;2022-12-20T03:47:18;11.15;;;5.57;;
44137;SDS011;29800;55.942;37.314;2022-12-20T03:49:45;13.10;;;5.93;;
44137;SDS011;29800;55.942;37.314;2022-12-20T03:52:12;15.25;;;6.07;;
44137;SDS011;29800;55.942;37.314;2022-12-20T03:54:39;10.43;;;5.82;;
44137;SDS011;29800;55.942;37.314;2022-12-20T03:57:12;10.27;;;5.18;;
44137;SDS011;29800;55.942;37.314;2022-12-20T03:59:39;12.68;;;5.55;;
44137;SDS011;29800;55.942;37.314;2022-12-20T04:02:08;10.80;;;4.97;;
44137;SDS011;29800;55.942;37.314;2022-12-20T04:04:34;11.13;;;5.43;;
44137;SDS011;29800;55.942;37.314;2022-12-20T04:07:00;12.98;;;5.82;;
44137;SDS011;29800;55.942;37.314;2022-12-20T04:09:26;11.02;;;5.38;;
44137;SDS011;29800;55.942;37.314;2022-12-20T04:11:59;12.65;;;5.18;;
44137;SDS011;29800;55.942;37.314;2022-12-20T04:14:26;11.00;;;5.35;;
44137;SDS011;29800;55.942;37.314;2022-12-20T04:16:52;15.00;;;5.68;;
44137;SDS011;29800;55.942;37.314;2022-12-20T04:19:21;13.32;;;5.45;;
44137;SDS011;29800;55.942;37.314;2022-12-20T04:21:47;13.02;;;6.90;;
44137;SDS011;29800;55.942;37.314;2022-12-20T04:24:16;12.25;;;5.38;;
44137;SDS011;29800;55.942;37.314;2022-12-20T04:26:54;11.07;;;5.25;;
44137;SDS011;29800;55.942;37.314;2022-12-20T04:29:20;13.63;;;5.20;;
44137;SDS011;29800;55.942;37.314;2022-12-20T04:31:47;12.55;;;6.07;;
44137;SDS011;29800;55.942;37.314;2022-12-20T04:34:13;12.13;;;5.25;;
44137;SDS011;29800;55.942;37.314;2022-12-20T04:36:40;11.13;;;5.32;;
44137;SDS011;29800;55.942;37.314;2022-12-20T04:39:12;13.25;;;5.18;;
44137;SDS011;29800;55.942;37.314;2022-12-20T04:41:59;12.27;;;5.47;;
44137;SDS011;29800;55.942;37.314;2022-12-20T04:44:25;13.68;;;5.53;;
44137;SDS011;29800;55.942;37.314;2022-12-20T04:46:51;12.77;;;5.70;;
44137;SDS011;29800;55.942;37.314;2022-12-20T04:49:17;13.68;;;5.20;;
44137;SDS011;29800;55.942;37.314;2022-12-20T04:51:43;11.50;;;4.80;;
44137;SDS011;29800;55.942;37.314;2022-12-20T04:54:11;11.60;;;5.10;;
44137;SDS011;29800;55.942;37.314;2022-12-20T04:56:43;11.73;;;4.85;;
44137;SDS011;29800;55.942;37.314;2022-12-20T04:59:15;9.40;;;4.78;;
44137;SDS011;29800;55.942;37.314;2022-12-20T05:01:44;12.65;;;5.00;;
44137;SDS011;29800;55.942;37.314;2022-12-20T05:04:14;16.35;;;7.20;;
44137;SDS011;29800;55.942;37.314;2022-12-20T05:06:41;15.23;;;5.75;;
44137;SDS011;29800;55.942;37.314;2022-12-20T05:09:07;14.55;;;5.50;;
44137;SDS011;29800;55.942;37.314;2022-12-20T05:11:33;11.48;;;5.18;;
44137;SDS011;29800;55.942;37.314;2022-12-20T05:14:01;14.32;;;6.15;;
44137;SDS011;29800;55.942;37.314;2022-12-20T05:16:28;11.30;;;5.03;;
44137;SDS011;29800;55.942;37.314;2022-12-20T05:18:54;12.60;;;5.40;;
44137;SDS011;29800;55.942;37.314;2022-12-20T05:21:20;15.38;;;5.82;;
44137;SDS011;29800;55.942;37.314;2022-12-20T05:24:07;15.75;;;6.03;;
44137;SDS011;29800;55.942;37.314;2022-12-20T05:27:02;14.75;;;6.07;;
44137;SDS011;29800;55.942;37.314;2022-12-20T05:29:29;12.95;;;6.03;;
44137;SDS011;29800;55.942;37.314;2022-12-20T05:31:55;15.30;;;6.25;;
44137;SDS011;29800;55.942;37.314;2022-12-20T05:34:22;14.57;;;6.75;;
44137;SDS011;29800;55.942;37.314;2022-12-20T05:36:51;14.00;;;6.70;;
44137;SDS011;29800;55.942;37.314;2022-12-20T05:39:19;13.02;;;5.88;;
44137;SDS011;29800;55.942;37.314;2022-12-20T05:41:47;14.73;;;6.43;;
44137;SDS011;29800;55.942;37.314;2022-12-20T05:44:13;14.63;;;6.70;;
44137;SDS011;29800;55.942;37.314;2022-12-20T05:46:44;12.73;;;5.85;;
44137;SDS011;29800;55.942;37.314;2022-12-20T05:49:16;16.95;;;6.55;;
44137;SDS011;29800;55.942;37.314;2022-12-20T05:51:42;13.75;;;6.88;;
44137;SDS011;29800;55.942;37.314;2022-12-20T05:54:20;15.63;;;7.18;;
44137;SDS011;29800;55.942;37.314;2022-12-20T05:56:54;13.23;;;6.63;;
44137;SDS011;29800;55.942;37.314;2022-12-20T05:59:28;14.77;;;5.88;;
44137;SDS011;29800;55.942;37.314;2022-12-20T06:01:54;15.27;;;6.55;;
44137;SDS011;29800;55.942;37.314;2022-12-20T06:04:22;14.80;;;6.57;;
44137;SDS011;29800;55.942;37.314;2022-12-20T06:06:49;16.20;;;6.35;;
44137;SDS011;29800;55.942;37.314;2022-12-20T06:09:18;15.80;;;7.45;;
44137;SDS011;29800;55.942;37.314;2022-12-20T06:11:53;12.43;;;5.47;;
44137;SDS011;29800;55.942;37.314;2022-12-20T06:14:20;14.25;;;7.07;;
44137;SDS011;29800;55.942;37.314;2022-12-20T06:16:46;14.45;;;6.38;;
44137;SDS011;29800;55.942;37.314;2022-12-20T06:19:15;15.30;;;6.53;;
44137;SDS011;29800;55.942;37.314;2022-12-20T06:21:42;14.15;;;6.82;;
44137;SDS011;29800;55.942;37.314;2022-12-20T06:24:11;15.18;;;6.53;;
44137;SDS011;29800;55.942;37.314;2022-12-20T06:26:41;14.85;;;6.72;;
44137;SDS011;29800;55.942;37.314;2022-12-20T06:29:08;12.20;;;6.05;;
44137;SDS011;29800;55.942;37.314;2022-12-20T06:31:49;16.10;;;6.78;;
44137;SDS011;29800;55.942;37.314;2022-12-20T06:34:16;12.18;;;6.43;;
44137;SDS011;29800;55.942;37.314;2022-12-20T06:36:42;11.60;;;6.13;;
44137;SDS011;29800;55.942;37.314;2022-12-20T06:39:15;17.15;;;7.13;;
44137;SDS011;29800;55.942;37.314;2022-12-20T06:41:52;14.02;;;6.53;;
44137;SDS011;29800;55.942;37.314;2022-12-20T06:44:18;14.77;;;6.63;;
44137;SDS011;29800;55.942;37.314;2022-12-20T06:46:44;16.08;;;7.13;;
44137;SDS011;29800;55.942;37.314;2022-12-20T06:49:10;16.17;;;7.35;;
44137;SDS011;29800;55.942;37.314;2022-12-20T06:51:37;14.85;;;6.53;;
44137;SDS011;29800;55.942;37.314;2022-12-20T06:54:03;15.65;;;7.32;;
44137;SDS011;29800;55.942;37.314;2022-12-20T06:56:32;16.10;;;6.95;;
44137;SDS011;29800;55.942;37.314;2022-12-20T06:58:58;12.70;;;6.88;;
44137;SDS011;29800;55.942;37.314;2022-12-20T07:01:24;10.90;;;5.70;;
44137;SDS011;29800;55.942;37.314;2022-12-20T07:03:50;15.00;;;6.18;;
44137;SDS011;29800;55.942;37.314;2022-12-20T07:06:16;13.98;;;6.20;;
44137;SDS011;29800;55.942;37.314;2022-12-20T07:08:42;14.68;;;6.93;;
44137;SDS011;29800;55.942;37.314;2022-12-20T07:11:09;14.02;;;6.18;;
44137;SDS011;29800;55.942;37.314;2022-12-20T07:13:35;11.50;;;5.47;;
44137;SDS011;29800;55.942;37.314;2022-12-20T07:16:01;15.02;;;6.03;;
44137;SDS011;29800;55.942;37.314;2022-12-20T07:18:28;14.68;;;5.65;;
44137;SDS011;29800;55.942;37.314;2022-12-20T07:20:58;12.57;;;5.70;;
44137;SDS011;29800;55.942;37.314;2022-12-20T07:23:25;12.00;;;5.47;;
44137;SDS011;29800;55.942;37.314;2022-12-20T07:25:52;9.93;;;5.22;;
44137;SDS011;29800;55.942;37.314;2022-12-20T07:28:19;14.57;;;5.18;;
44137;SDS011;29800;55.942;37.314;2022-12-20T07:30:45;12.63;;;5.28;;
44137;SDS011;29800;55.942;37.314;2022-12-20T07:33:11;10.75;;;4.75;;
44137;SDS011;29800;55.942;37.314;2022-12-20T07:35:37;11.02;;;4.97;;
44137;SDS011;29800;55.942;37.314;2022-12-20T07:38:04;10.02;;;4.53;;
44137;SDS011;29800;55.942;37.314;2022-12-20T07:40:30;9.10;;;4.60;;
44137;SDS011;29800;55.942;37.314;2022-12-20T07:42:56;10.48;;;4.93;;
44137;SDS011;29800;55.942;37.314;2022-12-20T07:45:23;13.63;;;5.15;;
44137;SDS011;29800;55.942;37.314;2022-12-20T07:47:49;11.88;;;5.40;;
44137;SDS011;29800;55.942;37.314;2022-12-20T07:50:15;13.30;;;7.35;;
44137;SDS011;29800;55.942;37.314;2022-12-20T07:52:41;12.63;;;6.22;;
44137;SDS011;29800;55.942;37.314;2022-12-20T07:55:10;10.73;;;5.32;;
44137;SDS011;29800;55.942;37.314;2022-12-20T07:57:50;14.52;;;5.72;;
44137;SDS011;29800;55.942;37.314;2022-12-20T08:00:19;10.27;;;4.97;;
44137;SDS011;29800;55.942;37.314;2022-12-20T08:02:51;10.98;;;4.75;;
44137;SDS011;29800;55.942;37.314;2022-12-20T08:05:29;11.00;;;4.97;;
44137;SDS011;29800;55.942;37.314;2022-12-20T08:07:55;11.10;;;4.95;;
44137;SDS011;29800;55.942;37.314;2022-12-20T08:10:23;9.77;;;4.60;;
44137;SDS011;29800;55.942;37.314;2022-12-20T08:12:50;10.10;;;4.35;;
44137;SDS011;29800;55.942;37.314;2022-12-20T08:15:17;9.48;;;4.13;;
44137;SDS011;29800;55.942;37.314;2022-12-20T08:17:44;10.02;;;4.50;;
44137;SDS011;29800;55.942;37.314;2022-12-20T08:20:10;7.88;;;3.78;;
44137;SDS011;29800;55.942;37.314;2022-12-20T08:22:36;6.93;;;3.60;;
44137;SDS011;29800;55.942;37.314;2022-12-20T08:25:02;9.52;;;3.88;;
44137;SDS011;29800;55.942;37.314;2022-12-20T08:27:29;6.85;;;3.65;;
44137;SDS011;29800;55.942;37.314;2022-12-20T08:29:55;7.63;;;3.88;;
44137;SDS011;29800;55.942;37.314;2022-12-20T08:32:21;8.35;;;3.90;;
44137;SDS011;29800;55.942;37.314;2022-12-20T08:34:47;6.15;;;3.40;;
44137;SDS011;29800;55.942;37.314;2022-12-20T08:37:15;7.78;;;3.60;;
44137;SDS011;29800;55.942;37.314;2022-12-20T08:39:42;7.18;;;3.85;;
44137;SDS011;29800;55.942;37.314;2022-12-20T08:42:08;12.95;;;7.10;;
44137;SDS011;29800;55.942;37.314;2022-12-20T08:44:34;11.38;;;6.53;;
44137;SDS011;29800;55.942;37.314;2022-12-20T08:47:00;9.00;;;5.40;;
44137;SDS011;29800;55.942;37.314;2022-12-20T08:49:26;10.57;;;4.90;;
44137;SDS011;29800;55.942;37.314;2022-12-20T08:51:52;6.13;;;3.08;;
44137;SDS011;29800;55.942;37.314;2022-12-20T08:54:18;6.30;;;3.47;;
44137;SDS011;29800;55.942;37.314;2022-12-20T08:56:45;6.55;;;3.40;;
44137;SDS011;29800;55.942;37.314;2022-12-20T08:59:11;7.57;;;3.40;;
44137;SDS011;29800;55.942;37.314;2022-12-20T09:01:36;4.00;;;2.47;;
44137;SDS011;29800;55.942;37.314;2022-12-20T09:04:03;6.05;;;3.03;;
44137;SDS011;29800;55.942;37.314;2022-12-20T09:06:30;6.80;;;3.55;;
44137;SDS011;29800;55.942;37.314;2022-12-20T09:08:56;9.15;;;3.33;;
44137;SDS011;29800;55.942;37.314;2022-12-20T09:11:25;9.90;;;3.60;;
44137;SDS011;29800;55.942;37.314;2022-12-20T09:13:53;5.93;;;3.17;;
44137;SDS011;29800;55.942;37.314;2022-12-20T09:16:22;6.07;;;3.50;;
44137;SDS011;29800;55.942;37.314;2022-12-20T09:18:51;6.82;;;3.50;;
44137;SDS011;29800;55.942;37.314;2022-12-20T09:21:19;6.05;;;3.00;;
44137;SDS011;29800;55.942;37.314;2022-12-20T09:23:45;6.25;;;2.75;;
44137;SDS011;29800;55.942;37.314;2022-12-20T09:26:12;6.50;;;3.55;;
44137;SDS011;29800;55.942;37.314;2022-12-20T09:28:40;6.13;;;3.25;;
44137;SDS011;29800;55.942;37.314;2022-12-20T09:31:07;6.55;;;3.00;;
44137;SDS011;29800;55.942;37.314;2022-12-20T09:33:35;4.97;;;2.95;;
44137;SDS011;29800;55.942;37.314;2022-12-20T09:36:02;5.60;;;3.05;;
44137;SDS011;29800;55.942;37.314;2022-12-20T09:38:29;6.25;;;3.58;;
44137;SDS011;29800;55.942;37.314;2022-12-20T09:40:57;4.88;;;3.10;;
44137;SDS011;29800;55.942;37.314;2022-12-20T09:43:26;7.00;;;3.13;;
44137;SDS011;29800;55.942;37.314;2022-12-20T09:45:54;9.65;;;3.03;;
44137;SDS011;29800;55.942;37.314;2022-12-20T09:53:48;7.30;;;3.58;;
44137;SDS011;29800;55.942;37.314;2022-12-20T09:59:12;6.00;;;2.92;;
44137;SDS011;29800;55.942;37.314;2022-12-20T10:01:43;6.05;;;3.00;;
44137;SDS011;29800;55.942;37.314;2022-12-20T10:04:26;5.80;;;3.50;;
44137;SDS011;29800;55.942;37.314;2022-12-20T10:07:11;5.63;;;3.00;;
44137;SDS011;29800;55.942;37.314;2022-12-20T10:21:17;6.22;;;3.05;;
44137;SDS011;29800;55.942;37.314;2022-12-20T10:24:00;7.82;;;3.95;;
44137;SDS011;29800;55.942;37.314;2022-12-20T10:26:28;7.82;;;3.58;;
44137;SDS011;29800;55.942;37.314;2022-12-20T10:28:56;6.60;;;3.45;;
44137;SDS011;29800;55.942;37.314;2022-12-20T10:31:22;5.00;;;2.45;;
44137;SDS011;29800;55.942;37.314;2022-12-20T10:33:49;5.80;;;2.70;;
44137;SDS011;29800;55.942;37.314;2022-12-20T10:36:20;7.20;;;3.60;;
44137;SDS011;29800;55.942;37.314;2022-12-20T10:39:01;8.65;;;4.88;;
44137;SDS011;29800;55.942;37.314;2022-12-20T10:46:48;16.60;;;9.48;;
44137;SDS011;29800;55.942;37.314;2022-12-20T10:49:36;11.30;;;5.60;;
44137;SDS011;29800;55.942;37.314;2022-12-20T10:54:35;6.82;;;3.05;;
44137;SDS011;29800;55.942;37.314;2022-12-20T10:57:02;5.97;;;3.13;;
44137;SDS011;29800;55.942;37.314;2022-12-20T10:59:41;5.63;;;2.88;;
44137;SDS011;29800;55.942;37.314;2022-12-20T11:02:30;6.57;;;3.38;;
44137;SDS011;29800;55.942;37.314;2022-12-20T11:05:01;5.38;;;3.10;;
44137;SDS011;29800;55.942;37.314;2022-12-20T11:07:34;6.90;;;3.40;;
44137;SDS011;29800;55.942;37.314;2022-12-20T11:10:03;8.00;;;3.90;;
44137;SDS011;29800;55.942;37.314;2022-12-20T11:12:53;10.75;;;5.05;;
44137;SDS011;29800;55.942;37.314;2022-12-20T11:15:27;16.55;;;7.60;;
44137;SDS011;29800;55.942;37.314;2022-12-20T11:20:34;15.73;;;9.20;;
44137;SDS011;29800;55.942;37.314;2022-12-20T11:40:08;6.47;;;3.35;;
44137;SDS011;29800;55.942;37.314;2022-12-20T11:53:24;8.50;;;5.35;;
44137;SDS011;29800;55.942;37.314;2022-12-20T11:56:00;7.50;;;3.92;;
44137;SDS011;29800;55.942;37.314;2022-12-20T11:58:34;5.85;;;3.00;;
44137;SDS011;29800;55.942;37.314;2022-12-20T12:01:11;8.18;;;4.03;;
44137;SDS011;29800;55.942;37.314;2022-12-20T12:03:42;8.85;;;4.82;;
44137;SDS011;29800;55.942;37.314;2022-12-20T12:06:31;8.65;;;4.80;;
44137;SDS011;29800;55.942;37.314;2022-12-20T12:12:36;6.60;;;3.55;;
44137;SDS011;29800;55.942;37.314;2022-12-20T12:18:08;25.52;;;15.50;;
44137;SDS011;29800;55.942;37.314;2022-12-20T12:23:28;15.48;;;10.25;;
44137;SDS011;29800;55.942;37.314;2022-12-20T12:26:01;7.03;;;4.38;;
44137;SDS011;29800;55.942;37.314;2022-12-20T12:28:36;6.57;;;3.80;;
44137;SDS011;29800;55.942;37.314;2022-12-20T12:31:04;7.20;;;3.10;;
44137;SDS011;29800;55.942;37.314;2022-12-20T12:33:49;7.57;;;3.42;;
44137;SDS011;29800;55.942;37.314;2022-12-20T12:36:41;7.07;;;3.30;;
44137;SDS011;29800;55.942;37.314;2022-12-20T12:50:45;8.82;;;4.90;;
44137;SDS011;29800;55.942;37.314;2022-12-20T12:53:16;7.53;;;4.50;;
44137;SDS011;29800;55.942;37.314;2022-12-20T12:55:47;12.60;;;6.00;;
44137;SDS011;29800;55.942;37.314;2022-12-20T13:04:08;10.93;;;5.38;;
44137;SDS011;29800;55.942;37.314;2022-12-20T13:11:31;7.40;;;4.05;;
44137;SDS011;29800;55.942;37.314;2022-12-20T13:27:21;7.50;;;3.83;;
44137;SDS011;29800;55.942;37.314;2022-12-20T13:37:55;10.38;;;5.45;;
44137;SDS011;29800;55.942;37.314;2022-12-20T13:40:32;10.90;;;5.82;;
44137;SDS011;29800;55.942;37.314;2022-12-20T13:43:06;11.20;;;5.45;;
44137;SDS011;29800;55.942;37.314;2022-12-20T13:46:00;8.70;;;5.53;;
44137;SDS011;29800;55.942;37.314;2022-12-20T13:51:14;9.27;;;4.20;;
44137;SDS011;29800;55.942;37.314;2022-12-20T13:53:48;9.85;;;4.70;;
44137;SDS011;29800;55.942;37.314;2022-12-20T13:59:02;8.90;;;4.60;;
44137;SDS011;29800;55.942;37.314;2022-12-20T14:01:32;13.77;;;6.97;;
44137;SDS011;29800;55.942;37.314;2022-12-20T14:04:01;14.32;;;7.35;;
44137;SDS011;29800;55.942;37.314;2022-12-20T14:06:31;24.52;;;13.13;;
44137;SDS011;29800;55.942;37.314;2022-12-20T14:08:58;29.73;;;15.80;;
44137;SDS011;29800;55.942;37.314;2022-12-20T14:11:25;26.02;;;13.88;;
44137;SDS011;29800;55.942;37.314;2022-12-20T14:13:55;31.38;;;17.55;;
44137;SDS011;29800;55.942;37.314;2022-12-20T14:16:26;46.58;;;20.48;;
44137;SDS011;29800;55.942;37.314;2022-12-20T14:21:41;13.32;;;7.10;;
44137;SDS011;29800;55.942;37.314;2022-12-20T14:24:16;10.77;;;5.93;;
44137;SDS011;29800;55.942;37.314;2022-12-20T14:26:45;10.25;;;5.05;;
44137;SDS011;29800;55.942;37.314;2022-12-20T14:29:17;8.82;;;4.82;;
44137;SDS011;29800;55.942;37.314;2022-12-20T14:31:49;8.80;;;3.90;;
44137;SDS011;29800;55.942;37.314;2022-12-20T14:34:17;9.80;;;4.10;;
44137;SDS011;29800;55.942;37.314;2022-12-20T14:36:49;8.32;;;4.60;;
44137;SDS011;29800;55.942;37.314;2022-12-20T14:39:25;11.23;;;4.50;;
44137;SDS011;29800;55.942;37.314;2022-12-20T14:42:00;8.57;;;3.90;;
44137;SDS011;29800;55.942;37.314;2022-12-20T14:44:28;9.27;;;4.15;;
44137;SDS011;29800;55.942;37.314;2022-12-20T14:46:56;9.85;;;4.38;;
44137;SDS011;29800;55.942;37.314;2022-12-20T14:49:31;10.48;;;4.50;;
44137;SDS011;29800;55.942;37.314;2022-12-20T14:52:10;10.57;;;4.47;;
44137;SDS011;29800;55.942;37.314;2022-12-20T14:57:24;9.80;;;4.55;;
44137;SDS011;29800;55.942;37.314;2022-12-20T15:00:36;9.75;;;4.78;;
44137;SDS011;29800;55.942;37.314;2022-12-20T15:10:42;11.45;;;5.38;;
44137;SDS011;29800;55.942;37.314;2022-12-20T15:13:23;10.35;;;4.78;;
44137;SDS011;29800;55.942;37.314;2022-12-20T15:15:52;11.00;;;6.07;;
44137;SDS011;29800;55.942;37.314;2022-12-20T15:18:18;9.95;;;5.50;;
44137;SDS011;29800;55.942;37.314;2022-12-20T15:20:47;13.15;;;6.63;;
44137;SDS011;29800;55.942;37.314;2022-12-20T15:23:20;14.02;;;6.72;;
44137;SDS011;29800;55.942;37.314;2022-12-20T15:25:47;11.85;;;6.43;;
44137;SDS011;29800;55.942;37.314;2022-12-20T15:28:14;14.43;;;6.75;;
44137;SDS011;29800;55.942;37.314;2022-12-20T15:30:46;14.95;;;6.80;;
44137;SDS011;29800;55.942;37.314;2022-12-20T15:33:17;17.40;;;7.57;;
44137;SDS011;29800;55.942;37.314;2022-12-20T15:35:46;16.90;;;7.65;;
44137;SDS011;29800;55.942;37.314;2022-12-20T15:38:13;15.90;;;7.13;;
44137;SDS011;29800;55.942;37.314;2022-12-20T15:40:42;12.73;;;5.82;;
44137;SDS011;29800;55.942;37.314;2022-12-20T15:43:13;13.15;;;5.50;;
44137;SDS011;29800;55.942;37.314;2022-12-20T15:45:42;10.88;;;5.15;;
44137;SDS011;29800;55.942;37.314;2022-12-20T15:48:11;11.95;;;5.68;;
44137;SDS011;29800;55.942;37.314;2022-12-20T15:50:40;10.93;;;5.35;;
44137;SDS011;29800;55.942;37.314;2022-12-20T15:53:12;11.60;;;5.10;;
44137;SDS011;29800;55.942;37.314;2022-12-20T15:55:40;10.52;;;5.18;;
44137;SDS011;29800;55.942;37.314;2022-12-20T15:58:07;12.52;;;5.70;;
44137;SDS011;29800;55.942;37.314;2022-12-20T16:00:35;13.95;;;7.65;;
44137;SDS011;29800;55.942;37.314;2022-12-20T16:03:07;14.65;;;7.55;;
44137;SDS011;29800;55.942;37.314;2022-12-20T16:05:45;12.57;;;6.95;;
44137;SDS011;29800;55.942;37.314;2022-12-20T16:08:12;12.68;;;6.75;;
44137;SDS011;29800;55.942;37.314;2022-12-20T16:10:39;14.02;;;6.50;;
44137;SDS011;29800;55.942;37.314;2022-12-20T16:13:05;14.15;;;6.35;;
44137;SDS011;29800;55.942;37.314;2022-12-20T16:15:37;14.10;;;6.60;;
44137;SDS011;29800;55.942;37.314;2022-12-20T16:18:04;12.88;;;6.78;;
44137;SDS011;29800;55.942;37.314;2022-12-20T16:20:30;12.52;;;6.30;;
44137;SDS011;29800;55.942;37.314;2022-12-20T16:22:56;14.90;;;6.82;;
44137;SDS011;29800;55.942;37.314;2022-12-20T16:25:24;15.82;;;6.95;;
44137;SDS011;29800;55.942;37.314;2022-12-20T16:27:55;15.27;;;7.32;;
44137;SDS011;29800;55.942;37.314;2022-12-20T16:30:22;16.58;;;7.60;;
44137;SDS011;29800;55.942;37.314;2022-12-20T16:32:49;13.50;;;7.05;;
44137;SDS011;29800;55.942;37.314;2022-12-20T16:35:26;13.00;;;7.25;;
44137;SDS011;29800;55.942;37.314;2022-12-20T16:37:57;16.42;;;7.43;;
44137;SDS011;29800;55.942;37.314;2022-12-20T16:40:26;15.18;;;7.65;;
44137;SDS011;29800;55.942;37.314;2022-12-20T16:42:56;18.40;;;8.50;;
44137;SDS011;29800;55.942;37.314;2022-12-20T16:45:26;16.35;;;7.97;;
44137;SDS011;29800;55.942;37.314;2022-12-20T16:47:56;17.45;;;8.40;;
44137;SDS011;29800;55.942;37.314;2022-12-20T16:50:23;12.88;;;7.22;;
44137;SDS011;29800;55.942;37.314;2022-12-20T16:52:52;14.73;;;6.75;;
44137;SDS011;29800;55.942;37.314;2022-12-20T16:55:22;15.30;;;7.35;;
44137;SDS011;29800;55.942;37.314;2022-12-20T16:57:50;15.55;;;7.47;;
44137;SDS011;29800;55.942;37.314;2022-12-20T17:02:45;16.25;;;7.90;;
44137;SDS011;29800;55.942;37.314;2022-12-20T17:05:17;14.70;;;7.18;;
44137;SDS011;29800;55.942;37.314;2022-12-20T17:07:49;13.98;;;6.43;;
44137;SDS011;29800;55.942;37.314;2022-12-20T17:10:15;17.85;;;7.82;;
44137;SDS011;29800;55.942;37.314;2022-12-20T17:12:42;18.13;;;8.85;;
44137;SDS011;29800;55.942;37.314;2022-12-20T17:15:20;20.67;;;9.32;;